createdAt,value
2022-08-07T00:00:26.066Z,99.90
2022-08-07T00:02:53.715Z,99.90
2022-08-07T00:05:23.686Z,99.90
2022-08-07T00:07:58.503Z,99.90
2022-08-07T00:10:31.206Z,99.90
2022-08-07T00:13:17.404Z,99.90
2022-08-07T00:15:52.706Z,99.90
2022-08-07T00:18:25.057Z,99.90
2022-08-07T00:21:03.312Z,99.90
2022-08-07T00:23:39.554Z,99.90
2022-08-07T00:26:12.971Z,99.90
2022-08-07T00:28:55.675Z,99.90
2022-08-07T00:31:37.558Z,99.90
2022-08-07T00:34:08.845Z,99.90
2022-08-07T00:36:43.018Z,99.90
2022-08-07T00:39:16.605Z,99.90
2022-08-07T00:42:02.235Z,99.90
2022-08-07T00:44:38.380Z,99.90
2022-08-07T00:47:15.954Z,99.90
2022-08-07T00:50:20.235Z,99.90
2022-08-07T00:52:47.262Z,99.90
2022-08-07T00:55:17.248Z,99.90
2022-08-07T00:57:56.017Z,99.90
2022-08-07T01:00:24.042Z,99.90
2022-08-07T01:02:52.192Z,99.90
2022-08-07T01:05:21.158Z,99.90
2022-08-07T01:07:52.164Z,99.90
2022-08-07T01:10:20.005Z,99.90
2022-08-07T01:12:53.756Z,99.90
2022-08-07T01:16:00.688Z,99.90
2022-08-07T01:18:11.286Z,99.90
2022-08-07T01:20:57.329Z,99.90
2022-08-07T01:23:36.843Z,99.90
2022-08-07T01:26:11.998Z,99.90
2022-08-07T01:28:45.988Z,99.90
2022-08-07T01:31:15.298Z,99.90
2022-08-07T01:33:53.613Z,99.90
2022-08-07T01:36:33.557Z,99.90
2022-08-07T01:39:01.537Z,99.90
2022-08-07T01:41:37.054Z,99.90
2022-08-07T01:44:06.548Z,99.90
2022-08-07T01:46:34.468Z,99.90
2022-08-07T01:49:02.407Z,99.90
2022-08-07T01:52:04.277Z,99.90
2022-08-07T01:54:36.435Z,99.90
2022-08-07T01:58:05.988Z,99.90
2022-08-07T02:00:29.465Z,99.90
2022-08-07T02:03:18.041Z,99.90
2022-08-07T02:05:59.664Z,99.90
2022-08-07T02:08:33.656Z,99.90
2022-08-07T02:11:04.834Z,99.90
2022-08-07T02:13:57.274Z,99.90
2022-08-07T02:16:28.816Z,99.90
2022-08-07T02:19:05.544Z,99.90
2022-08-07T02:21:56.380Z,99.90
2022-08-07T02:24:25.630Z,99.90
2022-08-07T02:27:01.361Z,99.90
2022-08-07T02:29:30.716Z,99.90
2022-08-07T02:32:01.011Z,99.90
2022-08-07T02:34:30.123Z,99.90
2022-08-07T02:37:00.796Z,99.90
2022-08-07T02:39:43.783Z,99.90
2022-08-07T02:42:18.450Z,99.60
2022-08-07T02:44:49.843Z,99.70
2022-08-07T02:47:23.637Z,99.90
2022-08-07T02:49:57.614Z,99.90
2022-08-07T02:52:55.080Z,99.90
2022-08-07T02:56:04.226Z,99.90
2022-08-07T02:58:27.238Z,99.90
2022-08-07T03:00:57.962Z,99.90
2022-08-07T03:03:49.342Z,99.90
2022-08-07T03:06:25.491Z,99.90
2022-08-07T03:08:59.416Z,99.90
2022-08-07T03:11:28.200Z,99.90
2022-08-07T03:13:57.522Z,99.90
2022-08-07T03:16:32.711Z,99.90
2022-08-07T03:19:00.718Z,99.90
2022-08-07T03:21:28.649Z,99.90
2022-08-07T03:24:19.790Z,99.90
2022-08-07T03:26:58.505Z,99.90
2022-08-07T03:29:49.410Z,99.90
2022-08-07T03:32:58.286Z,99.90
2022-08-07T03:35:43.858Z,99.90
2022-08-07T03:38:17.286Z,99.90
2022-08-07T03:40:57.119Z,99.90
2022-08-07T03:43:26.806Z,99.90
2022-08-07T03:46:01.451Z,99.90
2022-08-07T03:48:32.068Z,99.90
2022-08-07T03:51:02.072Z,99.90
2022-08-07T03:54:01.993Z,99.90
2022-08-07T03:56:33.362Z,99.90
2022-08-07T03:59:09.858Z,99.90
2022-08-07T04:01:45.354Z,99.90
2022-08-07T04:04:17.168Z,99.90
2022-08-07T04:06:45.660Z,99.90
2022-08-07T04:09:15.995Z,99.90
2022-08-07T04:12:26.933Z,99.90
2022-08-07T04:14:38.995Z,99.90
2022-08-07T04:17:20.499Z,99.90
2022-08-07T04:19:54.682Z,99.90
2022-08-07T04:22:27.588Z,99.90
2022-08-07T04:25:01.684Z,99.90
2022-08-07T04:27:36.227Z,99.90
2022-08-07T04:30:21.719Z,99.90
2022-08-07T04:33:00.343Z,99.90
2022-08-07T04:35:28.659Z,99.90
2022-08-07T04:38:13.168Z,99.90
2022-08-07T04:40:52.920Z,99.90
2022-08-07T04:44:14.658Z,99.90
2022-08-07T04:46:29.577Z,99.90
2022-08-07T04:49:38.817Z,99.90
2022-08-07T04:52:46.828Z,99.90
2022-08-07T04:58:16.754Z,99.90
2022-08-07T04:59:15.843Z,99.90
2022-08-07T05:01:43.566Z,99.90
2022-08-07T05:04:26.315Z,99.90
2022-08-07T05:07:20.533Z,99.90
2022-08-07T05:10:02.699Z,99.90
2022-08-07T05:12:51.401Z,99.90
2022-08-07T05:15:27.646Z,99.90
2022-08-07T05:18:09.018Z,99.90
2022-08-07T05:20:45.804Z,99.90
2022-08-07T05:23:48.513Z,99.90
2022-08-07T05:26:24.142Z,99.90
2022-08-07T05:28:55.710Z,99.90
2022-08-07T05:31:34.618Z,99.90
2022-08-07T05:34:05.611Z,99.90
2022-08-07T05:36:49.129Z,99.90
2022-08-07T05:40:05.547Z,99.90
2022-08-07T05:42:12.540Z,99.90
2022-08-07T05:44:41.539Z,99.90
2022-08-07T05:47:38.608Z,99.90
2022-08-07T05:50:05.218Z,99.90
2022-08-07T05:52:33.066Z,99.90
2022-08-07T05:55:10.181Z,99.90
2022-08-07T05:57:41.958Z,99.90
2022-08-07T06:00:16.628Z,99.90
2022-08-07T06:02:51.723Z,99.90
2022-08-07T06:05:20.488Z,99.90
2022-08-07T06:08:14.726Z,99.90
2022-08-07T06:10:46.955Z,99.90
2022-08-07T06:13:19.054Z,99.90
2022-08-07T06:16:01.373Z,99.90
2022-08-07T06:18:32.780Z,99.90
2022-08-07T06:22:16.968Z,99.90
2022-08-07T06:24:46.256Z,99.90
2022-08-07T06:26:41.274Z,99.90
2022-08-07T06:29:09.526Z,99.90
2022-08-07T06:31:49.833Z,99.90
2022-08-07T06:34:19.433Z,99.90
2022-08-07T06:36:48.156Z,99.90
2022-08-07T06:40:16.173Z,99.90
2022-08-07T06:42:17.837Z,99.90
2022-08-07T06:44:51.108Z,99.90
2022-08-07T06:47:19.713Z,99.90
2022-08-07T06:49:52.261Z,99.90
2022-08-07T06:52:35.732Z,99.90
2022-08-07T06:55:33.101Z,99.90
2022-08-07T06:58:10.427Z,99.90
2022-08-07T07:00:43.147Z,99.90
2022-08-07T07:03:14.443Z,99.90
2022-08-07T07:06:03.252Z,99.90
2022-08-07T07:08:33.360Z,99.90
2022-08-07T07:11:13.161Z,99.90
2022-08-07T07:13:57.662Z,99.90
2022-08-07T07:16:45.173Z,99.90
2022-08-07T07:19:55.071Z,99.90
2022-08-07T07:22:36.072Z,99.90
2022-08-07T07:26:30.793Z,99.90
2022-08-07T07:28:42.484Z,99.90
2022-08-07T07:31:39.830Z,99.90
2022-08-07T07:34:18.277Z,99.90
2022-08-07T07:36:54.026Z,99.80
2022-08-07T07:39:25.630Z,99.10
2022-08-07T07:42:08.764Z,99.30
2022-08-07T07:44:49.465Z,99.30
2022-08-07T07:47:23.794Z,98.70
2022-08-07T07:50:33.579Z,98.60
2022-08-07T07:52:44.172Z,98.60
2022-08-07T07:55:18.046Z,99.00
2022-08-07T07:57:53.669Z,99.30
2022-08-07T08:00:31.228Z,99.00
2022-08-07T08:03:16.823Z,98.70
2022-08-07T08:05:57.905Z,97.90
2022-08-07T08:08:35.015Z,98.40
2022-08-07T08:11:16.182Z,98.30
2022-08-07T08:13:53.951Z,98.10
2022-08-07T08:16:35.226Z,98.00
2022-08-07T08:19:17.719Z,98.00
2022-08-07T08:22:15.948Z,97.90
2022-08-07T08:25:24.943Z,98.00
2022-08-07T08:28:01.903Z,97.70
2022-08-07T08:30:35.061Z,97.60
2022-08-07T08:33:16.802Z,97.20
2022-08-07T08:35:49.899Z,97.20
2022-08-07T08:38:25.790Z,97.50
2022-08-07T08:41:23.360Z,97.40
2022-08-07T08:44:03.455Z,97.70
2022-08-07T08:47:00.399Z,97.60
2022-08-07T08:50:02.677Z,97.30
2022-08-07T08:52:53.797Z,97.60
2022-08-07T08:55:55.018Z,97.80
2022-08-07T08:58:50.566Z,97.30
2022-08-07T09:01:53.373Z,97.00
2022-08-07T09:04:57.958Z,96.50
2022-08-07T09:07:58.647Z,96.70
2022-08-07T09:11:01.926Z,96.50
2022-08-07T09:13:36.809Z,96.50
2022-08-07T09:16:33.775Z,96.90
2022-08-07T09:19:52.985Z,96.30
2022-08-07T09:24:33.193Z,96.20
2022-08-07T09:26:05.947Z,96.60
2022-08-07T09:30:01.361Z,96.80
2022-08-07T09:32:18.569Z,97.20
2022-08-07T09:36:04.549Z,97.30
2022-08-07T09:38:23.196Z,97.70
2022-08-07T09:41:15.927Z,97.90
2022-08-07T09:44:06.755Z,97.70
2022-08-07T09:47:49.909Z,97.80
2022-08-07T09:50:30.328Z,97.90
2022-08-07T09:53:04.733Z,98.30
2022-08-07T09:56:05.253Z,98.10
2022-08-07T09:59:14.030Z,97.70
2022-08-07T10:02:53.681Z,97.60
2022-08-07T10:06:01.260Z,97.10
2022-08-07T10:09:00.283Z,97.60
2022-08-07T10:12:11.829Z,97.40
2022-08-07T10:15:27.465Z,96.50
2022-08-07T10:18:31.552Z,96.40
2022-08-07T10:22:12.313Z,95.90
2022-08-07T10:24:24.422Z,95.70
2022-08-07T10:27:18.696Z,95.30
2022-08-07T10:30:12.893Z,95.70
2022-08-07T10:33:05.957Z,96.00
2022-08-07T10:35:54.995Z,94.90
2022-08-07T10:38:36.121Z,94.80
2022-08-07T10:41:51.558Z,94.40
2022-08-07T10:45:06.140Z,94.40
2022-08-07T10:47:52.686Z,94.20
2022-08-07T10:50:58.405Z,94.40
2022-08-07T10:53:41.842Z,94.30
2022-08-07T10:56:59.056Z,94.00
2022-08-07T11:00:36.555Z,93.90
2022-08-07T11:03:28.024Z,93.60
2022-08-07T11:06:42.088Z,94.10
2022-08-07T11:10:07.276Z,92.60
2022-08-07T11:12:32.176Z,92.50
2022-08-07T11:15:17.287Z,93.60
2022-08-07T11:17:56.717Z,92.70
2022-08-07T11:20:59.262Z,92.90
2022-08-07T11:23:56.128Z,93.20
2022-08-07T11:26:53.880Z,92.20
2022-08-07T11:29:42.516Z,92.60
2022-08-07T11:32:30.244Z,92.10
2022-08-07T11:35:16.655Z,91.80
2022-08-07T11:38:12.437Z,91.00
2022-08-07T11:41:03.268Z,90.80
2022-08-07T11:44:18.693Z,90.10
2022-08-07T11:48:29.535Z,90.00
2022-08-07T11:51:41.607Z,89.00
2022-08-07T11:55:18.584Z,90.00
2022-08-07T11:58:36.570Z,91.10
2022-08-07T12:01:06.720Z,90.70
2022-08-07T12:04:57.176Z,90.30
2022-08-07T12:07:59.551Z,90.20
2022-08-07T12:10:47.143Z,90.30
2022-08-07T12:13:47.527Z,90.20
2022-08-07T12:16:40.995Z,90.70
2022-08-07T12:19:35.967Z,90.60
2022-08-07T12:22:55.927Z,90.20
2022-08-07T12:26:23.461Z,90.10
2022-08-07T12:29:38.401Z,90.40
2022-08-07T12:32:22.717Z,89.50
2022-08-07T12:34:55.636Z,89.50
2022-08-07T12:37:27.977Z,90.30
2022-08-07T12:40:46.681Z,90.00
2022-08-07T12:43:10.840Z,90.50
2022-08-07T12:46:03.214Z,91.20
2022-08-07T12:49:39.729Z,90.80
2022-08-07T12:52:19.436Z,90.80
2022-08-07T12:55:22.422Z,90.30
2022-08-07T12:58:13.619Z,90.10
2022-08-07T13:01:04.684Z,90.20
2022-08-07T13:04:05.423Z,91.50
2022-08-07T13:07:01.090Z,90.70
2022-08-07T13:10:18.963Z,91.30
2022-08-07T13:13:48.698Z,91.00
2022-08-07T13:16:25.738Z,90.50
2022-08-07T13:19:50.316Z,90.70
2022-08-07T13:22:52.577Z,90.70
2022-08-07T13:25:34.912Z,91.30
2022-08-07T13:28:18.471Z,91.00
2022-08-07T13:31:01.602Z,90.60
2022-08-07T13:34:33.919Z,90.10
2022-08-07T13:36:59.424Z,89.30
2022-08-07T13:40:33.806Z,90.00
2022-08-07T13:42:35.220Z,87.70
2022-08-07T13:45:21.069Z,87.00
2022-08-07T13:48:05.454Z,87.60
2022-08-07T13:50:44.980Z,89.10
2022-08-07T13:53:36.066Z,86.90
2022-08-07T13:56:35.790Z,85.60
2022-08-07T13:59:33.284Z,85.60
2022-08-07T14:02:07.800Z,83.70
2022-08-07T14:04:47.495Z,82.90
2022-08-07T14:07:23.726Z,81.70
2022-08-07T14:10:21.645Z,81.20
2022-08-07T14:13:01.357Z,81.90
2022-08-07T14:15:43.847Z,81.20
2022-08-07T14:18:30.654Z,82.60
2022-08-07T14:22:41.137Z,82.10
2022-08-07T14:24:09.042Z,83.40
2022-08-07T14:28:09.805Z,81.80
2022-08-07T14:30:05.442Z,83.30
2022-08-07T14:33:05.388Z,81.80
2022-08-07T14:35:45.691Z,81.90
2022-08-07T14:38:26.095Z,81.50
2022-08-07T14:41:04.076Z,80.10
2022-08-07T14:43:58.429Z,80.00
2022-08-07T14:49:57.665Z,78.80
2022-08-07T14:52:10.622Z,77.10
2022-08-07T14:54:42.952Z,75.60
2022-08-07T14:57:15.016Z,76.50
2022-08-07T15:02:39.305Z,74.30
2022-08-07T15:05:20.140Z,74.30
2022-08-07T15:07:51.826Z,72.20
2022-08-07T15:10:25.966Z,72.80
2022-08-07T15:13:19.766Z,72.70
2022-08-07T15:15:53.601Z,73.90
2022-08-07T15:18:41.610Z,73.80
2022-08-07T15:21:58.820Z,73.40
2022-08-07T15:25:15.253Z,71.40
2022-08-07T15:27:34.708Z,73.10
2022-08-07T15:30:16.475Z,72.20
2022-08-07T15:33:01.349Z,73.40
2022-08-07T15:38:30.706Z,73.80
2022-08-07T15:41:23.849Z,72.90
2022-08-07T15:44:07.110Z,74.20
2022-08-07T15:46:47.432Z,74.50
2022-08-07T15:52:15.469Z,75.30
2022-08-07T15:54:48.930Z,74.80
2022-08-07T15:57:39.308Z,75.60
2022-08-07T16:00:31.620Z,75.40
2022-08-07T16:03:21.640Z,75.90
2022-08-07T16:06:09.476Z,78.60
2022-08-07T16:08:42.577Z,78.50
2022-08-07T16:11:41.676Z,78.50
2022-08-07T16:14:19.416Z,80.90
2022-08-07T16:18:02.087Z,78.90
2022-08-07T16:20:43.211Z,80.50
2022-08-07T16:24:02.647Z,82.00
2022-08-07T16:27:00.017Z,84.00
2022-08-07T16:30:11.406Z,81.90
2022-08-07T16:32:46.494Z,83.00
2022-08-07T16:35:58.906Z,83.60
2022-08-07T16:39:03.129Z,82.60
2022-08-07T16:42:04.272Z,83.70
2022-08-07T16:45:19.135Z,84.60
2022-08-07T16:48:08.953Z,85.90
2022-08-07T16:51:21.646Z,85.40
2022-08-07T16:54:06.395Z,86.80
2022-08-07T16:56:49.535Z,86.00
2022-08-07T16:59:52.220Z,85.30
2022-08-07T17:02:53.517Z,85.10
2022-08-07T17:06:02.139Z,86.40
2022-08-07T17:09:09.914Z,87.40
2022-08-07T17:12:01.340Z,87.70
2022-08-07T17:15:15.502Z,86.40
2022-08-07T17:17:48.865Z,87.00
2022-08-07T17:20:37.780Z,86.50
2022-08-07T17:23:32.279Z,86.00
2022-08-07T17:26:23.430Z,87.70
2022-08-07T17:30:12.421Z,86.30
2022-08-07T17:32:52.962Z,87.60
2022-08-07T17:35:54.554Z,88.90
2022-08-07T17:38:57.159Z,90.40
2022-08-07T17:42:04.156Z,91.10
2022-08-07T17:44:51.633Z,93.30
2022-08-07T17:47:54.301Z,95.30
2022-08-07T17:50:47.344Z,96.60
2022-08-07T17:54:00.853Z,97.80
2022-08-07T17:56:49.626Z,99.20
2022-08-07T18:00:05.095Z,99.90
2022-08-07T18:03:18.499Z,99.90
2022-08-07T18:06:01.959Z,99.90
2022-08-07T18:09:02.069Z,99.90
2022-08-07T18:12:17.987Z,99.90
2022-08-07T18:14:54.923Z,99.90
2022-08-07T18:19:02.542Z,99.90
2022-08-07T18:21:27.508Z,99.90
2022-08-07T18:24:09.041Z,99.90
2022-08-07T18:27:17.931Z,99.90
2022-08-07T18:30:31.501Z,99.90
2022-08-07T18:33:54.957Z,99.90
2022-08-07T18:36:58.652Z,99.90
2022-08-07T18:40:42.795Z,99.90
2022-08-07T18:43:51.407Z,99.90
2022-08-07T18:46:37.278Z,99.90
2022-08-07T18:50:31.056Z,99.90
2022-08-07T18:52:52.643Z,99.90
2022-08-07T18:55:42.763Z,99.90
2022-08-07T18:58:55.067Z,99.90
2022-08-07T19:02:20.055Z,99.90
2022-08-07T19:06:02.137Z,99.90
2022-08-07T19:08:46.588Z,99.90
2022-08-07T19:11:34.973Z,99.90
2022-08-07T19:14:16.994Z,99.90
2022-08-07T19:17:07.576Z,99.90
2022-08-07T19:20:28.807Z,99.90
2022-08-07T19:23:57.243Z,99.90
2022-08-07T19:26:23.394Z,99.90
2022-08-07T19:31:03.861Z,99.90
2022-08-07T19:32:17.157Z,99.90
2022-08-07T19:35:08.321Z,99.90
2022-08-07T19:37:57.273Z,99.90
2022-08-07T19:40:49.934Z,99.90
2022-08-07T19:43:44.128Z,99.90
2022-08-07T19:46:18.874Z,99.90
2022-08-07T19:49:06.765Z,99.90
2022-08-07T19:51:53.189Z,99.90
2022-08-07T19:54:35.150Z,99.90
2022-08-07T19:58:03.625Z,99.90
2022-08-07T20:00:12.769Z,99.90
2022-08-07T20:03:34.076Z,99.90
2022-08-07T20:06:15.373Z,99.90
2022-08-07T20:09:03.063Z,99.90
2022-08-07T20:12:01.307Z,99.90
2022-08-07T20:14:54.085Z,99.90
2022-08-07T20:17:31.177Z,99.90
2022-08-07T20:20:02.637Z,99.90
2022-08-07T20:22:34.466Z,99.90
2022-08-07T20:25:12.784Z,99.90
2022-08-07T20:27:58.700Z,99.90
2022-08-07T20:30:37.591Z,99.90
2022-08-07T20:33:09.205Z,99.90
2022-08-07T20:36:03.575Z,99.90
2022-08-07T20:38:32.765Z,99.90
2022-08-07T20:41:03.634Z,99.90
2022-08-07T20:43:34.345Z,99.90
2022-08-07T20:46:27.191Z,99.90
2022-08-07T20:49:59.989Z,99.90
2022-08-07T20:51:50.577Z,99.90
2022-08-07T20:54:30.230Z,99.90
2022-08-07T20:57:08.397Z,99.90
2022-08-07T21:00:08.381Z,99.90
2022-08-07T21:02:55.215Z,99.90
2022-08-07T21:05:50.551Z,99.90
2022-08-07T21:08:44.684Z,99.90
2022-08-07T21:11:21.934Z,99.90
2022-08-07T21:14:33.459Z,99.90
2022-08-07T21:18:00.646Z,99.90
2022-08-07T21:20:00.705Z,99.90
2022-08-07T21:22:39.600Z,99.90
2022-08-07T21:25:19.792Z,99.90
2022-08-07T21:28:06.275Z,99.90
2022-08-07T21:31:15.152Z,99.90
2022-08-07T21:33:54.913Z,99.90
2022-08-07T21:36:59.197Z,99.90
2022-08-07T21:40:05.877Z,99.90
2022-08-07T21:42:46.077Z,99.90
2022-08-07T21:46:08.153Z,99.90
2022-08-07T21:48:29.329Z,99.90
2022-08-07T21:51:27.957Z,99.90
2022-08-07T21:54:54.996Z,99.90
2022-08-07T21:57:52.167Z,99.90
2022-08-07T22:00:25.272Z,99.90
2022-08-07T22:03:30.718Z,99.90
2022-08-07T22:06:30.424Z,99.90
2022-08-07T22:09:13.707Z,99.90
2022-08-07T22:12:04.925Z,99.90
2022-08-07T22:15:02.612Z,99.90
2022-08-07T22:18:16.907Z,99.90
2022-08-07T22:21:20.951Z,99.90
2022-08-07T22:24:02.417Z,99.90
2022-08-07T22:26:51.605Z,99.90
2022-08-07T22:29:48.274Z,99.90
2022-08-07T22:32:46.963Z,99.90
2022-08-07T22:35:17.855Z,99.90
2022-08-07T22:38:25.768Z,99.90
2022-08-07T22:41:02.859Z,99.90
2022-08-07T22:43:50.568Z,99.90
2022-08-07T22:47:02.808Z,99.90
2022-08-07T22:49:39.663Z,99.90
2022-08-07T22:52:52.638Z,99.90
2022-08-07T22:56:01.595Z,99.90
2022-08-07T22:58:55.300Z,99.90
2022-08-07T23:02:03.869Z,99.90
2022-08-07T23:06:09.940Z,99.90
2022-08-07T23:08:31.285Z,99.90
2022-08-07T23:11:13.377Z,99.90
2022-08-07T23:14:19.598Z,99.90
2022-08-07T23:17:15.859Z,99.90
2022-08-07T23:20:51.437Z,99.90
2022-08-07T23:24:05.935Z,99.90
2022-08-07T23:27:07.844Z,99.90
2022-08-07T23:30:37.524Z,99.90
2022-08-07T23:34:22.710Z,99.90
2022-08-07T23:37:19.301Z,99.90
2022-08-07T23:40:17.334Z,99.90
2022-08-07T23:43:38.013Z,99.90
2022-08-07T23:46:39.623Z,99.90
2022-08-07T23:49:49.999Z,99.90
2022-08-07T23:53:05.616Z,99.90
2022-08-07T23:56:01.272Z,99.90
